createdAt,value
2018-12-26T00:03:26.660Z,9.24
2018-12-26T00:09:21.655Z,8.36
2018-12-26T00:15:16.646Z,9.08
2018-12-26T00:21:11.668Z,9.38
2018-12-26T00:27:06.702Z,8.54
2018-12-26T00:33:01.674Z,11.72
2018-12-26T00:38:56.675Z,4.87
2018-12-26T00:44:51.689Z,11.57
2018-12-26T00:50:46.705Z,9.34
2018-12-26T00:56:41.690Z,7.21
2018-12-26T01:02:36.691Z,6.28
2018-12-26T01:08:31.720Z,8.95
2018-12-26T01:14:26.709Z,8.66
2018-12-26T01:20:21.707Z,8.02
2018-12-26T01:26:19.163Z,11.3
2018-12-26T01:32:11.711Z,10.11
2018-12-26T01:38:06.708Z,12.25
2018-12-26T01:44:01.722Z,11.36
2018-12-26T01:49:56.736Z,8.13
2018-12-26T01:55:51.714Z,12.93
2018-12-26T02:01:46.755Z,8.46
2018-12-26T02:07:41.717Z,9.11
2018-12-26T02:13:36.749Z,10.6
2018-12-26T02:19:31.728Z,22.96
2018-12-26T02:25:26.761Z,17.33
2018-12-26T02:31:21.730Z,16.35
2018-12-26T02:37:16.734Z,12.97
2018-12-26T02:43:11.744Z,8.8
2018-12-26T02:49:06.799Z,12.62
2018-12-26T02:55:01.747Z,12.98
2018-12-26T03:00:56.762Z,18.14
2018-12-26T03:06:51.757Z,20.59
2018-12-26T03:12:46.765Z,15.8
2018-12-26T03:18:41.751Z,26.88
2018-12-26T03:24:36.794Z,12.81
2018-12-26T03:30:31.771Z,11.82
2018-12-26T03:36:26.836Z,10.18
2018-12-26T03:42:21.766Z,12.17
2018-12-26T03:48:16.778Z,13.97
2018-12-26T03:54:11.806Z,15
2018-12-26T04:00:06.779Z,8.67
2018-12-26T04:06:01.773Z,14.16
2018-12-26T04:11:56.798Z,16.05
2018-12-26T04:17:51.771Z,18.49
2018-12-26T04:23:46.796Z,17.89
2018-12-26T04:29:41.837Z,18.59
2018-12-26T04:35:36.810Z,13.41
2018-12-26T04:41:31.811Z,12.95
2018-12-26T04:47:26.869Z,12.89
2018-12-26T04:53:21.851Z,13.61
2018-12-26T04:59:16.905Z,15
2018-12-26T05:05:11.818Z,11.59
2018-12-26T05:11:06.810Z,12.16
2018-12-26T05:17:01.843Z,8.7
2018-12-26T05:22:56.835Z,10.43
2018-12-26T05:28:51.823Z,13.17
2018-12-26T05:34:46.816Z,12.17
2018-12-26T05:40:41.852Z,12.54
2018-12-26T05:46:36.888Z,14.86
2018-12-26T05:52:31.839Z,8.96
2018-12-26T05:58:26.858Z,8.68
2018-12-26T06:04:21.874Z,9.18
2018-12-26T06:10:16.882Z,8.86
2018-12-26T06:16:11.862Z,9.76
2018-12-26T06:22:06.848Z,17.78
2018-12-26T06:28:01.850Z,14.81
2018-12-26T06:33:56.876Z,15.11
2018-12-26T06:39:51.866Z,12.2
2018-12-26T06:45:46.847Z,10.55
2018-12-26T06:51:41.861Z,12.16
2018-12-26T06:57:36.872Z,12.42
2018-12-26T07:03:31.970Z,11.12
2018-12-26T07:09:26.899Z,8.06
2018-12-26T07:15:21.855Z,8.36
2018-12-26T07:21:16.865Z,9.4
2018-12-26T07:27:11.893Z,9.5
2018-12-26T07:33:06.879Z,8.56
2018-12-26T07:39:01.883Z,10.35
2018-12-26T07:44:56.921Z,15.07
2018-12-26T07:50:51.929Z,13.87
2018-12-26T07:56:46.898Z,14.45
2018-12-26T08:02:41.917Z,17.98
2018-12-26T08:08:36.920Z,26.14
2018-12-26T08:14:31.906Z,22.29
2018-12-26T08:20:27.012Z,21.17
2018-12-26T08:26:21.926Z,24.17
2018-12-26T08:32:16.899Z,25.84
2018-12-26T08:38:11.925Z,24.62
2018-12-26T08:44:06.908Z,24.8
2018-12-26T08:50:01.947Z,22.82
2018-12-26T08:55:56.932Z,26.91
2018-12-26T09:01:51.961Z,22.76
2018-12-26T09:07:46.934Z,26.53
2018-12-26T09:13:41.949Z,24.44
2018-12-26T09:19:36.945Z,26.01
2018-12-26T09:25:31.949Z,31.7
2018-12-26T09:31:26.942Z,34.26
2018-12-26T09:37:21.960Z,39.29
2018-12-26T09:43:16.987Z,35.6
2018-12-26T09:49:11.967Z,37.06
2018-12-26T09:55:07.005Z,39.08
2018-12-26T10:01:01.949Z,37.71
2018-12-26T10:06:56.977Z,44.65
2018-12-26T10:12:51.986Z,42.01
2018-12-26T10:18:47.012Z,54.11
2018-12-26T10:24:41.963Z,51.13
2018-12-26T10:30:37.022Z,64.78
2018-12-26T10:36:31.998Z,51.6
2018-12-26T10:42:26.994Z,45.13
2018-12-26T10:48:22.016Z,41.16
2018-12-26T10:54:17.038Z,44.6
2018-12-26T11:00:12.060Z,41.2
2018-12-26T11:06:06.992Z,31.69
2018-12-26T11:12:01.996Z,30.87
2018-12-26T11:17:56.987Z,32.59
2018-12-26T11:23:52.093Z,35.97
2018-12-26T11:29:47.027Z,38.41
2018-12-26T11:35:42.025Z,32.38
2018-12-26T11:41:37.022Z,31.17
2018-12-26T11:47:32.002Z,30.63
2018-12-26T11:53:27.020Z,27.25
2018-12-26T11:59:27.094Z,29.93
2018-12-26T12:05:17.064Z,29.16
2018-12-26T12:11:12.029Z,37.9
2018-12-26T12:17:07.069Z,31.26
2018-12-26T12:23:02.081Z,31.02
2018-12-26T12:28:57.043Z,26.77
2018-12-26T12:34:52.041Z,27.23
2018-12-26T12:40:47.052Z,25.65
2018-12-26T12:46:42.046Z,21.44
2018-12-26T12:52:37.062Z,18.19
2018-12-26T12:58:32.057Z,16.72
2018-12-26T13:04:27.066Z,16.89
2018-12-26T13:10:22.104Z,32.7
2018-12-26T13:16:17.060Z,47.73
2018-12-26T13:22:12.118Z,36.08
2018-12-26T13:28:07.075Z,20.04
2018-12-26T13:34:02.093Z,19.56
2018-12-26T13:39:57.093Z,18.02
2018-12-26T13:45:52.066Z,16.83
2018-12-26T13:51:47.078Z,22.12
2018-12-26T13:57:42.087Z,21.11
2018-12-26T14:03:37.082Z,20.86
2018-12-26T14:09:32.100Z,20.77
2018-12-26T14:15:27.090Z,19.64
2018-12-26T14:21:22.090Z,15.71
2018-12-26T14:27:17.125Z,18.83
2018-12-26T14:33:12.163Z,14.59
2018-12-26T14:39:07.123Z,16.91
2018-12-26T14:45:02.126Z,15.8
2018-12-26T14:50:57.137Z,20.68
2018-12-26T14:56:52.112Z,26.93
2018-12-26T15:02:47.119Z,26.46
2018-12-26T15:08:42.168Z,21.27
2018-12-26T15:14:37.123Z,16.91
2018-12-26T15:20:32.141Z,16.67
2018-12-26T15:26:27.146Z,22.15
2018-12-26T15:32:22.146Z,17.41
2018-12-26T15:38:17.156Z,18.25
2018-12-26T15:44:12.164Z,15.56
2018-12-26T15:50:07.186Z,16.51
2018-12-26T15:56:02.172Z,16.12
2018-12-26T16:01:57.154Z,15.24
2018-12-26T16:07:52.162Z,10.09
2018-12-26T16:13:47.190Z,11.4
2018-12-26T16:19:42.166Z,6.78
2018-12-26T16:25:37.165Z,13.28
2018-12-26T16:31:32.197Z,8.16
2018-12-26T16:37:27.172Z,7.14
2018-12-26T16:43:22.183Z,5.06
2018-12-26T16:49:17.171Z,8.66
2018-12-26T16:55:12.187Z,7.56
2018-12-26T17:01:07.180Z,9
2018-12-26T17:07:02.250Z,7.13
2018-12-26T17:12:57.195Z,13.87
2018-12-26T17:18:52.235Z,10.37
2018-12-26T17:24:47.211Z,11.38
2018-12-26T17:30:42.216Z,10.68
2018-12-26T17:36:37.218Z,6.1
2018-12-26T17:42:32.212Z,6.34
2018-12-26T17:48:27.263Z,7.75
2018-12-26T17:54:22.221Z,7.43
2018-12-26T18:00:17.267Z,8.23
2018-12-26T18:06:12.235Z,8.85
2018-12-26T18:12:11.663Z,8.61
2018-12-26T18:18:02.206Z,10.82
2018-12-26T18:23:57.224Z,11.98
2018-12-26T18:29:52.240Z,13.1
2018-12-26T18:35:47.273Z,13.07
2018-12-26T18:41:42.347Z,7.62
2018-12-26T18:47:37.238Z,8.18
2018-12-26T18:53:32.291Z,7.1
2018-12-26T18:59:27.251Z,8.73
2018-12-26T19:05:22.266Z,12.88
2018-12-26T19:11:17.314Z,17.18
2018-12-26T19:17:12.342Z,21.5
2018-12-26T19:23:07.304Z,29.6
2018-12-26T19:29:02.292Z,25.34
2018-12-26T19:34:57.286Z,23.67
2018-12-26T19:40:52.278Z,22.92
2018-12-26T19:46:47.268Z,26.54
2018-12-26T19:52:42.321Z,23.56
2018-12-26T19:58:37.283Z,18.15
2018-12-26T20:04:32.287Z,19.09
2018-12-26T20:10:27.278Z,16.53
2018-12-26T20:16:22.268Z,28.1
2018-12-26T20:22:17.300Z,22.37
2018-12-26T20:28:12.292Z,19.74
2018-12-26T20:34:07.306Z,16.59
2018-12-26T20:40:02.376Z,20.36
2018-12-26T20:45:57.291Z,28.89
2018-12-26T20:51:52.308Z,21.1
2018-12-26T20:57:47.338Z,19.82
2018-12-26T21:03:42.330Z,22.26
2018-12-26T21:09:37.338Z,28.79
2018-12-26T21:15:32.340Z,30.52
2018-12-26T21:21:27.311Z,27.48
2018-12-26T21:27:22.327Z,25.56
2018-12-26T21:33:17.342Z,25.12
2018-12-26T21:39:12.324Z,22.51
2018-12-26T21:45:07.333Z,23.75
2018-12-26T21:51:02.339Z,24.85
2018-12-26T21:56:57.337Z,26.74
2018-12-26T22:02:52.338Z,31.83
2018-12-26T22:08:47.372Z,28.28
2018-12-26T22:14:42.344Z,19.32
2018-12-26T22:20:37.366Z,22.41
2018-12-26T22:26:32.353Z,24.26
2018-12-26T22:32:30.677Z,29.93
2018-12-26T22:38:22.355Z,24.92
2018-12-26T22:44:17.404Z,22
2018-12-26T22:50:12.379Z,29.54
2018-12-26T22:56:07.378Z,26.79
2018-12-26T23:02:02.372Z,22.9
2018-12-26T23:07:57.390Z,21.63
2018-12-26T23:13:52.405Z,31.05
2018-12-26T23:19:47.392Z,36.95
2018-12-26T23:25:42.385Z,47.47
2018-12-26T23:31:37.378Z,39.81
2018-12-26T23:37:32.409Z,30.82
2018-12-26T23:43:27.402Z,25.01
2018-12-26T23:49:22.396Z,29.74
2018-12-26T23:55:17.396Z,37.79
